Time;durP1;ratioP1;P1;durP2;ratioP2;P2;SDS_P1;SDS_P2;PMS_P1;PMS_P2;Temp;Humidity;BMP_temperature;BMP_pressure;BME280_temperature;BME280_humidity;BME280_pressure;Samples;Min_cycle;Max_cycle;Signal;HPM_P1;HPM_P2
2023/07/11 00:01:22;;;;;;;4.35;2.45;;;18.50;99.90;;;;;;5071527;28;20024;-57
2023/07/11 00:03:47;;;;;;;7.72;2.80;;;18.40;99.90;;;;;;5071493;28;20036;-57
2023/07/11 00:06:17;;;;;;;9.32;2.80;;;18.40;99.90;;;;;;5071209;28;20490;-59
2023/07/11 00:08:43;;;;;;;6.60;2.47;;;18.30;99.90;;;;;;5071069;28;20391;-60
2023/07/11 00:11:10;;;;;;;10.85;2.88;;;18.30;99.90;;;;;;5071577;28;20021;-58
2023/07/11 00:13:37;;;;;;;10.45;2.92;;;18.30;99.90;;;;;;5071432;28;20020;-57
2023/07/11 00:16:06;;;;;;;4.35;2.42;;;18.20;99.90;;;;;;5070247;28;20033;-60
2023/07/11 00:18:32;;;;;;;8.38;2.58;;;18.20;99.90;;;;;;5071195;28;20044;-56
2023/07/11 00:20:57;;;;;;;8.05;2.78;;;18.30;99.90;;;;;;5071113;28;20025;-58
2023/07/11 00:23:24;;;;;;;6.32;2.38;;;18.30;99.90;;;;;;5071216;28;20051;-60
2023/07/11 00:25:49;;;;;;;6.00;2.63;;;18.30;99.90;;;;;;5070998;28;20044;-54
2023/07/11 00:28:15;;;;;;;8.90;2.83;;;18.30;99.90;;;;;;5071021;28;20032;-58
2023/07/11 00:30:41;;;;;;;8.45;2.78;;;18.30;99.90;;;;;;5071125;28;20033;-59
2023/07/11 00:33:11;;;;;;;5.75;2.60;;;18.30;99.90;;;;;;5071199;28;20051;-57
2023/07/11 00:35:37;;;;;;;9.85;2.70;;;18.30;99.90;;;;;;5070999;28;20047;-60
2023/07/11 00:38:03;;;;;;;5.75;2.78;;;18.30;99.90;;;;;;5070922;28;20036;-60
2023/07/11 00:40:29;;;;;;;4.63;2.80;;;18.30;99.90;;;;;;5071156;28;20024;-60
2023/07/11 00:42:55;;;;;;;5.82;2.95;;;18.30;99.90;;;;;;5070950;28;20039;-60
2023/07/11 00:45:58;;;;;;;4.45;2.65;;;18.30;99.90;;;;;;5070989;28;20024;-58
2023/07/11 00:48:24;;;;;;;12.90;2.97;;;18.30;99.90;;;;;;5070868;28;20032;-60
2023/07/11 00:50:52;;;;;;;6.80;2.85;;;18.20;99.90;;;;;;5070921;28;20021;-60
2023/07/11 00:53:18;;;;;;;8.88;3.58;;;18.20;99.90;;;;;;5071033;28;20027;-60
2023/07/11 00:55:44;;;;;;;5.30;3.08;;;18.00;99.90;;;;;;5070980;28;20024;-58
2023/07/11 00:58:11;;;;;;;10.50;3.47;;;18.00;99.90;;;;;;5070865;28;20035;-60
2023/07/11 01:00:36;;;;;;;9.20;2.40;;;18.00;99.90;;;;;;5071018;28;20055;-58
2023/07/11 01:03:02;;;;;;;4.53;2.78;;;18.00;99.90;;;;;;5070954;28;20499;-58
2023/07/11 01:05:27;;;;;;;6.32;2.75;;;18.00;99.90;;;;;;5070950;28;20033;-60
2023/07/11 01:07:53;;;;;;;8.15;3.55;;;18.00;99.90;;;;;;5070734;28;20021;-56
2023/07/11 01:10:19;;;;;;;7.40;3.15;;;18.00;99.90;;;;;;5070568;28;20458;-56
2023/07/11 01:12:47;;;;;;;10.40;2.85;;;18.00;99.90;;;;;;5070773;28;20024;-58
2023/07/11 01:15:12;;;;;;;8.95;3.30;;;18.00;99.90;;;;;;5070562;28;20063;-60
2023/07/11 01:17:38;;;;;;;6.50;3.15;;;17.90;99.90;;;;;;5070746;28;20024;-58
2023/07/11 01:20:07;;;;;;;9.48;2.92;;;18.00;99.90;;;;;;5070571;28;20646;-53
2023/07/11 01:22:38;;;;;;;7.10;2.88;;;18.00;99.90;;;;;;5070715;28;20086;-59
2023/07/11 01:25:10;;;;;;;5.93;2.72;;;17.90;99.90;;;;;;5070434;28;20017;-58
2023/07/11 01:27:40;;;;;;;8.30;2.75;;;18.00;99.90;;;;;;5072163;28;20061;-56
2023/07/11 01:30:08;;;;;;;5.05;2.70;;;17.90;99.90;;;;;;5074497;28;20414;-58
2023/07/11 01:32:34;;;;;;;6.15;2.83;;;18.00;99.90;;;;;;5074258;28;20138;-58
2023/07/11 01:35:00;;;;;;;5.13;2.45;;;17.90;99.90;;;;;;5074181;28;20021;-58
2023/07/11 01:37:26;;;;;;;4.57;2.40;;;17.90;99.90;;;;;;5074125;28;20020;-58
2023/07/11 01:39:51;;;;;;;9.20;2.50;;;17.90;99.90;;;;;;5074072;28;20109;-56
2023/07/11 01:42:17;;;;;;;4.85;2.42;;;17.90;99.90;;;;;;5074199;28;20166;-57
2023/07/11 01:44:42;;;;;;;9.40;3.22;;;17.90;99.90;;;;;;5074044;28;20086;-58
2023/07/11 01:47:08;;;;;;;7.88;2.72;;;17.90;99.90;;;;;;5074085;28;20024;-58
2023/07/11 01:49:34;;;;;;;7.05;2.80;;;17.80;99.90;;;;;;5074066;28;20020;-56
2023/07/11 01:52:21;;;;;;;4.30;2.40;;;17.80;99.90;;;;;;5074147;28;20037;-55
2023/07/11 01:54:48;;;;;;;6.70;3.25;;;17.80;99.90;;;;;;5073837;28;20012;-58
2023/07/11 01:57:15;;;;;;;4.50;2.80;;;17.80;99.90;;;;;;5073907;28;20028;-58
2023/07/11 01:59:40;;;;;;;11.73;3.55;;;17.70;99.90;;;;;;5073741;28;20030;-58
2023/07/11 02:02:08;;;;;;;6.00;3.20;;;17.70;99.90;;;;;;5073958;28;20029;-54
2023/07/11 02:04:34;;;;;;;5.35;2.33;;;17.70;99.90;;;;;;5073678;28;20482;-56
2023/07/11 02:07:01;;;;;;;4.97;2.28;;;17.70;99.90;;;;;;5073509;28;20060;-58
2023/07/11 02:09:26;;;;;;;6.13;2.85;;;17.70;99.90;;;;;;5073440;28;20475;-56
2023/07/11 02:11:52;;;;;;;5.90;2.58;;;17.60;99.90;;;;;;5073531;28;20036;-57
2023/07/11 02:14:19;;;;;;;5.13;2.75;;;17.60;99.90;;;;;;5073544;28;20095;-54
2023/07/11 02:16:46;;;;;;;6.07;2.78;;;17.60;99.90;;;;;;5073381;28;20482;-56
2023/07/11 02:19:13;;;;;;;5.40;2.50;;;17.50;99.90;;;;;;5073275;28;20486;-59
2023/07/11 02:21:39;;;;;;;10.40;2.75;;;17.60;99.90;;;;;;5073336;28;20156;-58
2023/07/11 02:24:07;;;;;;;7.07;2.50;;;17.60;99.90;;;;;;5073155;28;20494;-56
2023/07/11 02:26:33;;;;;;;7.55;2.85;;;17.60;99.90;;;;;;5073176;28;20028;-56
2023/07/11 02:28:58;;;;;;;6.43;2.60;;;17.60;99.90;;;;;;5072974;28;20074;-57
2023/07/11 02:31:24;;;;;;;5.65;2.75;;;17.60;99.90;;;;;;5073248;28;20103;-57
2023/07/11 02:33:49;;;;;;;7.97;2.42;;;17.60;99.90;;;;;;5073105;28;20127;-58
2023/07/11 02:36:15;;;;;;;6.05;2.70;;;17.60;99.90;;;;;;5072852;28;20062;-58
2023/07/11 02:38:40;;;;;;;6.45;3.10;;;17.50;99.90;;;;;;5071774;28;20399;-58
2023/07/11 02:41:06;;;;;;;6.80;2.63;;;17.60;99.90;;;;;;5072921;28;20060;-56
2023/07/11 02:43:31;;;;;;;7.43;3.33;;;17.50;99.90;;;;;;5072954;28;20036;-55
2023/07/11 02:45:57;;;;;;;7.95;2.78;;;17.50;99.90;;;;;;5072722;28;20028;-57
2023/07/11 02:48:25;;;;;;;8.25;3.00;;;17.50;99.90;;;;;;5072709;28;20035;-54
2023/07/11 02:50:51;;;;;;;8.18;2.50;;;17.50;99.90;;;;;;5072626;28;20024;-53
2023/07/11 02:53:17;;;;;;;6.50;2.63;;;17.50;99.90;;;;;;5072825;28;20097;-58
2023/07/11 02:55:43;;;;;;;2.85;2.38;;;17.50;99.90;;;;;;5072557;28;20100;-56
2023/07/11 02:58:08;;;;;;;8.20;2.97;;;17.50;99.90;;;;;;5072414;28;20033;-60
2023/07/11 03:00:34;;;;;;;6.88;2.40;;;17.50;99.90;;;;;;5072720;28;20036;-58
2023/07/11 03:02:59;;;;;;;4.70;2.80;;;17.50;99.90;;;;;;5072553;28;20090;-58
2023/07/11 03:05:25;;;;;;;4.28;2.42;;;17.50;99.90;;;;;;5072206;28;20070;-58
2023/07/11 03:07:50;;;;;;;5.82;2.35;;;17.50;99.90;;;;;;5072489;28;20156;-59
2023/07/11 03:10:16;;;;;;;9.05;2.88;;;17.60;99.90;;;;;;5072312;28;20059;-58
2023/07/11 03:12:42;;;;;;;7.80;2.50;;;17.50;99.90;;;;;;5072375;28;20044;-54
2023/07/11 03:15:08;;;;;;;12.95;2.88;;;17.50;99.90;;;;;;5072184;28;20099;-60
2023/07/11 03:17:33;;;;;;;3.95;2.47;;;17.40;99.90;;;;;;5072159;28;20028;-60
2023/07/11 03:19:59;;;;;;;5.53;3.22;;;17.40;99.90;;;;;;5071812;28;20076;-59
2023/07/11 03:22:25;;;;;;;8.27;2.55;;;17.30;99.90;;;;;;5072262;28;20039;-57
2023/07/11 03:24:50;;;;;;;5.82;2.22;;;17.30;99.90;;;;;;5072009;28;20395;-58
2023/07/11 03:27:16;;;;;;;7.95;2.80;;;17.20;99.90;;;;;;5071962;28;20043;-59
2023/07/11 03:29:41;;;;;;;4.97;3.03;;;17.10;99.90;;;;;;5071810;28;20032;-53
2023/07/11 03:32:09;;;;;;;6.72;2.92;;;17.10;99.90;;;;;;5072089;28;20109;-55
2023/07/11 03:34:36;;;;;;;13.95;3.38;;;16.90;99.90;;;;;;5071834;28;20039;-52
2023/07/11 03:37:01;;;;;;;6.70;3.00;;;16.90;99.90;;;;;;5071973;28;20030;-55
2023/07/11 03:39:27;;;;;;;11.57;3.00;;;16.80;99.90;;;;;;5071764;28;20103;-55
2023/07/11 03:41:52;;;;;;;9.35;3.45;;;16.80;99.90;;;;;;5071741;28;20036;-60
2023/07/11 03:44:18;;;;;;;7.80;3.05;;;16.80;99.90;;;;;;5071745;28;20479;-58
2023/07/11 03:46:43;;;;;;;10.15;2.88;;;16.80;99.90;;;;;;5070257;28;20036;-58
2023/07/11 03:49:09;;;;;;;8.75;2.50;;;16.80;99.90;;;;;;5071418;28;20030;-60
2023/07/11 03:51:35;;;;;;;7.15;3.03;;;16.80;99.90;;;;;;5071569;28;20028;-58
2023/07/11 03:54:01;;;;;;;8.57;3.88;;;16.90;99.90;;;;;;5071543;28;20479;-53
2023/07/11 03:56:27;;;;;;;7.43;3.22;;;16.80;99.90;;;;;;5071674;28;20081;-59
2023/07/11 03:58:53;;;;;;;6.47;3.22;;;16.90;99.90;;;;;;5071325;28;20069;-57
2023/07/11 04:01:18;;;;;;;4.35;2.72;;;16.90;99.90;;;;;;5071567;28;20073;-58
2023/07/11 04:03:44;;;;;;;5.68;3.50;;;16.90;99.90;;;;;;5071340;28;20099;-56
2023/07/11 04:06:10;;;;;;;9.52;3.17;;;17.00;99.90;;;;;;5071340;28;20479;-60
2023/07/11 04:08:36;;;;;;;7.47;3.20;;;17.00;99.90;;;;;;5071280;28;20024;-58
2023/07/11 04:11:02;;;;;;;10.07;3.50;;;17.10;99.90;;;;;;5071365;28;20031;-54
2023/07/11 04:13:27;;;;;;;11.93;2.97;;;17.10;99.90;;;;;;5071433;28;20390;-58
2023/07/11 04:15:53;;;;;;;7.78;3.42;;;17.20;99.90;;;;;;5071144;28;20039;-56
2023/07/11 04:18:19;;;;;;;9.05;3.13;;;17.20;99.90;;;;;;5070948;28;20453;-56
2023/07/11 04:20:45;;;;;;;15.00;3.40;;;17.30;99.90;;;;;;5071266;28;20033;-58
2023/07/11 04:23:11;;;;;;;3.58;2.50;;;17.30;99.90;;;;;;5070126;28;20042;-58
2023/07/11 04:25:37;;;;;;;10.50;3.25;;;17.40;99.90;;;;;;5071077;28;20033;-58
2023/07/11 04:28:05;;;;;;;10.00;3.08;;;17.40;99.90;;;;;;5071127;28;20029;-58
2023/07/11 04:30:31;;;;;;;7.10;3.13;;;17.40;99.90;;;;;;5071260;28;20023;-57
2023/07/11 04:32:56;;;;;;;13.30;3.65;;;17.40;99.90;;;;;;5070969;28;20100;-54
2023/07/11 04:35:22;;;;;;;8.20;2.28;;;17.50;99.90;;;;;;5071198;28;20380;-59
2023/07/11 04:37:47;;;;;;;8.52;2.95;;;17.50;99.90;;;;;;5071044;28;20025;-56
2023/07/11 04:40:15;;;;;;;10.10;3.20;;;17.60;99.90;;;;;;5071072;28;20032;-57
2023/07/11 04:42:41;;;;;;;8.77;3.00;;;17.60;99.90;;;;;;5071096;28;20036;-56
2023/07/11 04:45:08;;;;;;;6.35;3.55;;;17.60;99.90;;;;;;5070939;28;20027;-58
2023/07/11 04:47:35;;;;;;;7.25;3.20;;;17.70;99.90;;;;;;5070797;28;20040;-57
2023/07/11 04:50:00;;;;;;;12.65;3.33;;;17.70;99.90;;;;;;5070832;28;20029;-56
2023/07/11 04:52:26;;;;;;;9.85;3.70;;;17.80;99.90;;;;;;5071262;28;20039;-60
2023/07/11 04:54:52;;;;;;;9.60;3.50;;;17.80;99.90;;;;;;5070894;28;20444;-58
2023/07/11 04:57:18;;;;;;;13.10;3.40;;;17.90;99.90;;;;;;5069743;28;20040;-60
2023/07/11 04:59:43;;;;;;;7.28;3.90;;;17.90;99.90;;;;;;5070994;28;20024;-56
2023/07/11 05:02:09;;;;;;;6.45;3.38;;;17.90;99.90;;;;;;5072126;28;20498;-58
2023/07/11 05:04:34;;;;;;;6.43;2.95;;;18.00;99.90;;;;;;5075063;28;20024;-57
2023/07/11 05:07:00;;;;;;;6.28;3.05;;;18.00;99.90;;;;;;5074828;28;20033;-59
2023/07/11 05:09:28;;;;;;;9.77;3.15;;;18.00;99.90;;;;;;5074779;28;20021;-58
2023/07/11 05:11:53;;;;;;;6.88;3.17;;;18.10;99.90;;;;;;5074852;28;20498;-58
2023/07/11 05:14:19;;;;;;;5.72;3.22;;;18.10;99.90;;;;;;5074862;28;20115;-58
2023/07/11 05:16:44;;;;;;;6.10;3.08;;;18.10;99.90;;;;;;5074705;28;20032;-57
2023/07/11 05:19:10;;;;;;;8.75;3.63;;;18.20;99.90;;;;;;5074715;28;20029;-58
2023/07/11 05:21:36;;;;;;;10.23;3.85;;;18.30;99.90;;;;;;5074940;28;20020;-58
2023/07/11 05:24:01;;;;;;;7.80;3.50;;;18.30;99.90;;;;;;5074678;28;20025;-56
2023/07/11 05:26:28;;;;;;;8.02;3.30;;;18.40;99.90;;;;;;5075073;28;20032;-57
2023/07/11 05:28:53;;;;;;;8.55;3.05;;;18.40;99.90;;;;;;5074436;28;20422;-59
2023/07/11 05:31:19;;;;;;;11.10;3.75;;;18.40;99.90;;;;;;5074591;28;20017;-58
2023/07/11 05:33:44;;;;;;;5.93;3.55;;;18.50;99.90;;;;;;5074721;28;20031;-57
2023/07/11 05:36:31;;;;;;;6.97;3.45;;;18.50;99.90;;;;;;5074502;28;20056;-57
2023/07/11 05:38:57;;;;;;;8.50;2.92;;;18.60;99.90;;;;;;5074323;28;20104;-57
2023/07/11 05:41:22;;;;;;;7.60;3.22;;;18.70;99.90;;;;;;5074510;28;20114;-55
2023/07/11 05:43:48;;;;;;;10.85;3.42;;;18.80;99.90;;;;;;5073963;28;20048;-57
2023/07/11 05:46:14;;;;;;;10.45;3.13;;;18.90;99.90;;;;;;5073910;28;20104;-56
2023/07/11 05:48:39;;;;;;;11.05;3.63;;;19.00;99.90;;;;;;5073729;28;20032;-53
2023/07/11 05:51:11;;;;;;;5.45;2.92;;;19.00;99.90;;;;;;5073919;28;20085;-56
2023/07/11 05:53:37;;;;;;;7.30;2.70;;;19.10;99.90;;;;;;5074137;28;20025;-56
2023/07/11 05:56:03;;;;;;;7.82;3.13;;;19.20;99.90;;;;;;5073746;28;20029;-57
2023/07/11 05:58:31;;;;;;;4.72;3.10;;;19.20;99.90;;;;;;5073576;28;20032;-58
2023/07/11 06:00:57;;;;;;;5.65;3.40;;;19.30;99.90;;;;;;5073570;28;20028;-57
2023/07/11 06:03:25;;;;;;;12.15;3.28;;;19.40;99.90;;;;;;5073843;28;20550;-59
2023/07/11 06:05:51;;;;;;;6.90;2.80;;;19.50;99.90;;;;;;5073497;28;20078;-58
2023/07/11 06:08:17;;;;;;;15.77;3.67;;;19.50;99.90;;;;;;5073510;28;20052;-57
2023/07/11 06:10:43;;;;;;;8.77;4.07;;;19.60;99.90;;;;;;5073548;28;20513;-54
2023/07/11 06:13:11;;;;;;;11.10;3.05;;;19.70;99.90;;;;;;5073482;28;20029;-59
2023/07/11 06:15:37;;;;;;;4.38;3.00;;;19.70;99.90;;;;;;5073455;28;20108;-57
2023/07/11 06:18:03;;;;;;;8.38;3.42;;;19.80;99.90;;;;;;5073424;28;20028;-56
2023/07/11 06:20:29;;;;;;;7.10;3.22;;;19.90;99.90;;;;;;5073288;28;20372;-58
2023/07/11 06:22:54;;;;;;;15.10;3.88;;;19.90;99.90;;;;;;5073202;28;20111;-55
2023/07/11 06:25:20;;;;;;;28.02;4.32;;;20.00;99.90;;;;;;5073023;28;20395;-58
2023/07/11 06:27:46;;;;;;;21.98;4.05;;;20.10;99.90;;;;;;5072817;28;20024;-56
2023/07/11 06:30:12;;;;;;;10.75;3.85;;;20.20;99.90;;;;;;5073051;28;20060;-55
2023/07/11 06:32:38;;;;;;;8.77;2.78;;;20.30;99.90;;;;;;5073226;28;20555;-54
2023/07/11 06:35:04;;;;;;;9.10;3.05;;;20.50;99.90;;;;;;5073122;28;20020;-59
2023/07/11 06:37:30;;;;;;;8.50;2.53;;;20.60;99.90;;;;;;5073112;28;20061;-58
2023/07/11 06:39:55;;;;;;;11.48;2.75;;;20.70;99.90;;;;;;5072697;28;20060;-57
2023/07/11 06:42:21;;;;;;;19.50;3.85;;;20.80;99.90;;;;;;5072928;28;20044;-57
2023/07/11 06:44:47;;;;;;;7.20;2.47;;;20.90;99.90;;;;;;5072688;28;20071;-58
2023/07/11 06:47:12;;;;;;;6.65;3.22;;;21.00;99.90;;;;;;5072784;28;20053;-59
2023/07/11 06:49:38;;;;;;;33.58;14.15;;;21.00;99.90;;;;;;5072681;28;20056;-60
2023/07/11 06:52:04;;;;;;;66.55;37.00;;;21.10;99.90;;;;;;5072709;28;20024;-59
2023/07/11 06:54:30;;;;;;;16.42;6.28;;;21.20;99.90;;;;;;5072642;28;20017;-58
2023/07/11 06:57:00;;;;;;;25.05;5.35;;;21.30;99.90;;;;;;5072629;28;20033;-59
2023/07/11 06:59:26;;;;;;;13.95;3.47;;;21.40;99.90;;;;;;5072644;28;20055;-58
2023/07/11 07:01:52;;;;;;;33.63;7.30;;;21.50;99.90;;;;;;5072753;28;20478;-57
2023/07/11 07:04:17;;;;;;;7.88;3.38;;;21.50;99.90;;;;;;5072453;28;20086;-58
2023/07/11 07:06:43;;;;;;;10.52;3.00;;;21.60;99.90;;;;;;5072356;28;20082;-58
2023/07/11 07:09:10;;;;;;;24.35;4.03;;;21.80;99.90;;;;;;5072198;28;20024;-59
2023/07/11 07:11:36;;;;;;;10.50;3.20;;;22.00;99.90;;;;;;5072486;28;20029;-58
2023/07/11 07:14:05;;;;;;;9.20;3.25;;;22.00;99.90;;;;;;5072268;28;20085;-56
2023/07/11 07:16:32;;;;;;;7.47;2.85;;;22.20;99.90;;;;;;5072328;28;20032;-57
2023/07/11 07:18:58;;;;;;;10.70;2.90;;;22.30;99.90;;;;;;5072147;28;20024;-60
2023/07/11 07:21:24;;;;;;;13.02;2.90;;;22.40;99.90;;;;;;5072248;28;20075;-58
2023/07/11 07:23:49;;;;;;;11.85;3.10;;;22.50;99.90;;;;;;5072000;28;20564;-57
2023/07/11 07:26:15;;;;;;;20.42;3.50;;;22.70;99.90;;;;;;5071639;28;20031;-56
2023/07/11 07:28:40;;;;;;;10.30;3.10;;;22.80;99.90;;;;;;5071942;28;20390;-56
2023/07/11 07:31:06;;;;;;;12.90;2.40;;;22.90;99.90;;;;;;5072418;28;20028;-58
2023/07/11 07:33:33;;;;;;;6.78;2.92;;;23.00;99.90;;;;;;5072456;28;20029;-58
2023/07/11 07:36:06;;;;;;;10.75;2.78;;;23.10;99.90;;;;;;5071841;28;20517;-57
2023/07/11 07:38:32;;;;;;;12.70;3.07;;;23.20;99.90;;;;;;5071720;28;20029;-56
2023/07/11 07:41:01;;;;;;;4.95;2.65;;;23.30;99.90;;;;;;5071666;28;20037;-58
2023/07/11 07:43:27;;;;;;;8.40;3.75;;;23.40;99.90;;;;;;5071825;28;20024;-58
2023/07/11 07:45:54;;;;;;;8.40;5.00;;;23.50;99.90;;;;;;5071748;28;20104;-57
2023/07/11 07:48:20;;;;;;;5.07;2.53;;;23.60;99.90;;;;;;5071647;28;20033;-59
2023/07/11 07:50:47;;;;;;;8.95;3.47;;;23.70;99.90;;;;;;5071650;28;20021;-55
2023/07/11 07:53:14;;;;;;;10.25;3.25;;;23.80;99.90;;;;;;5071780;28;20025;-56
2023/07/11 07:55:40;;;;;;;10.43;2.60;;;23.90;99.90;;;;;;5071685;28;20040;-57
2023/07/11 07:58:06;;;;;;;8.00;2.25;;;24.10;99.90;;;;;;5071379;28;20056;-57
2023/07/11 08:00:32;;;;;;;9.23;2.58;;;24.10;99.90;;;;;;5071495;28;20091;-56
2023/07/11 08:02:58;;;;;;;6.78;2.58;;;24.20;99.90;;;;;;5071680;28;20578;-58
2023/07/11 08:05:23;;;;;;;9.52;2.85;;;24.40;99.90;;;;;;5069917;28;20070;-60
2023/07/11 08:07:49;;;;;;;40.92;6.47;;;24.40;99.90;;;;;;5071375;28;20028;-56
2023/07/11 08:10:16;;;;;;;30.17;4.55;;;24.50;99.90;;;;;;5071466;28;20063;-59
2023/07/11 08:12:42;;;;;;;10.35;3.08;;;24.60;99.90;;;;;;5071518;28;20027;-55
2023/07/11 08:15:10;;;;;;;22.58;3.88;;;24.70;99.90;;;;;;5071608;28;20376;-56
2023/07/11 08:17:35;;;;;;;32.65;12.27;;;24.80;99.90;;;;;;5071295;28;20021;-57
2023/07/11 08:20:01;;;;;;;10.13;3.85;;;24.90;99.90;;;;;;5071088;28;20430;-58
2023/07/11 08:22:27;;;;;;;33.60;4.35;;;25.00;99.90;;;;;;5071712;28;20025;-59
2023/07/11 08:24:52;;;;;;;15.23;3.35;;;25.20;99.90;;;;;;5071425;28;20671;-58
2023/07/11 08:27:18;;;;;;;19.13;3.35;;;25.30;99.90;;;;;;5071311;28;20494;-60
2023/07/11 08:29:45;;;;;;;11.18;3.00;;;25.40;99.90;;;;;;5071073;28;20494;-60
2023/07/11 08:32:15;;;;;;;3.55;2.40;;;25.60;99.90;;;;;;5071159;28;20040;-58
2023/07/11 08:34:41;;;;;;;8.35;2.60;;;25.80;99.90;;;;;;5070969;28;20044;-58
2023/07/11 08:37:07;;;;;;;13.07;3.40;;;25.90;99.90;;;;;;5072219;28;20028;-58
2023/07/11 08:39:33;;;;;;;17.45;4.30;;;26.10;99.90;;;;;;5075260;28;20032;-57
2023/07/11 08:42:05;;;;;;;120.53;18.70;;;26.10;99.90;;;;;;5075069;28;20038;-58
2023/07/11 08:44:42;;;;;;;65.72;12.60;;;26.20;99.90;;;;;;5075258;28;20042;-54
2023/07/11 08:47:24;;;;;;;8.73;2.75;;;26.40;99.90;;;;;;5075031;28;20457;-54
2023/07/11 08:50:02;;;;;;;8.38;2.10;;;26.50;99.90;;;;;;5075040;28;20028;-56
2023/07/11 08:52:30;;;;;;;11.18;2.40;;;26.90;99.90;;;;;;5075162;28;20032;-55
2023/07/11 08:55:24;;;;;;;3.40;2.22;;;26.80;99.90;;;;;;5074932;28;20052;-58
2023/07/11 08:58:10;;;;;;;8.35;2.85;;;26.80;99.90;;;;;;5074335;28;20392;-58
2023/07/11 09:00:36;;;;;;;5.18;2.45;;;27.00;99.90;;;;;;5075024;28;20021;-58
2023/07/11 09:03:10;;;;;;;4.55;1.83;;;27.10;99.90;;;;;;5074951;28;20078;-58
2023/07/11 09:05:47;;;;;;;11.48;2.97;;;27.30;99.90;;;;;;5074771;28;20031;-59
2023/07/11 09:08:18;;;;;;;9.63;2.42;;;27.40;99.90;;;;;;5074691;28;20056;-58
2023/07/11 09:11:08;;;;;;;8.27;2.38;;;27.40;99.90;;;;;;5074654;28;20401;-58
2023/07/11 09:13:58;;;;;;;7.18;2.60;;;27.30;99.90;;;;;;5074759;28;20025;-59
2023/07/11 09:16:29;;;;;;;5.60;2.58;;;27.30;99.90;;;;;;5074605;28;20029;-56
2023/07/11 09:19:07;;;;;;;4.40;2.50;;;27.40;99.90;;;;;;5074418;28;20375;-58
2023/07/11 09:21:51;;;;;;;7.43;2.40;;;27.50;99.90;;;;;;5074631;28;20032;-58
2023/07/11 09:24:34;;;;;;;10.93;3.00;;;27.50;99.90;;;;;;5074463;28;20198;-57
2023/07/11 09:27:32;;;;;;;3.55;2.17;;;27.60;99.90;;;;;;5074267;28;20290;-60
2023/07/11 09:29:58;;;;;;;5.78;2.80;;;27.80;99.90;;;;;;5074268;28;20021;-59
2023/07/11 09:32:33;;;;;;;17.95;3.00;;;27.90;99.90;;;;;;5074290;28;20486;-58
2023/07/11 09:35:17;;;;;;;6.47;2.47;;;28.10;99.90;;;;;;5074012;28;20383;-58
2023/07/11 09:37:48;;;;;;;5.28;2.88;;;28.10;99.90;;;;;;5074213;28;20028;-55
2023/07/11 09:40:31;;;;;;;5.50;2.10;;;28.10;99.90;;;;;;5074208;28;20149;-58
2023/07/11 09:42:57;;;;;;;6.88;2.30;;;28.10;99.90;;;;;;5074050;28;20055;-59
2023/07/11 09:45:32;;;;;;;9.05;2.20;;;27.90;99.90;;;;;;5073802;28;20487;-55
2023/07/11 09:48:11;;;;;;;9.38;2.78;;;28.10;99.90;;;;;;5073416;28;20020;-54
2023/07/11 09:51:24;;;;;;;7.32;2.78;;;28.40;99.90;;;;;;5074057;28;20035;-57
2023/07/11 09:53:53;;;;;;;7.40;2.88;;;28.60;99.90;;;;;;5071380;28;20480;-58
2023/07/11 09:56:18;;;;;;;5.93;2.30;;;28.80;98.40;;;;;;5073878;28;20715;-58
2023/07/11 09:58:50;;;;;;;17.30;3.22;;;28.90;98.90;;;;;;5073421;28;20107;-61
2023/07/11 10:01:25;;;;;;;14.82;3.55;;;28.90;98.40;;;;;;5073848;28;20078;-58
2023/07/11 10:03:55;;;;;;;10.20;2.80;;;29.00;98.60;;;;;;5073717;28;20020;-60
2023/07/11 10:06:42;;;;;;;5.65;2.28;;;29.30;98.00;;;;;;5073647;28;20039;-59
2023/07/11 10:09:15;;;;;;;6.30;3.17;;;29.40;96.60;;;;;;5073536;28;20035;-58
2023/07/11 10:11:41;;;;;;;5.78;2.53;;;29.50;96.60;;;;;;5073566;28;20082;-58
2023/07/11 10:14:17;;;;;;;10.90;2.90;;;29.70;96.20;;;;;;5073457;28;20490;-60
2023/07/11 10:16:42;;;;;;;10.95;3.15;;;30.00;95.80;;;;;;5073350;28;20070;-57
2023/07/11 10:19:17;;;;;;;12.90;2.63;;;30.30;95.60;;;;;;5073355;28;20021;-59
2023/07/11 10:21:46;;;;;;;21.25;3.10;;;30.50;95.60;;;;;;5073418;28;20040;-58
2023/07/11 10:24:17;;;;;;;9.05;2.80;;;30.70;94.80;;;;;;5073342;28;20037;-58
2023/07/11 10:26:46;;;;;;;13.57;3.25;;;30.70;94.30;;;;;;5073120;28;20052;-61
2023/07/11 10:29:17;;;;;;;16.23;3.60;;;31.00;94.70;;;;;;5073048;28;20013;-58
2023/07/11 10:31:53;;;;;;;4.90;2.97;;;31.10;93.30;;;;;;5073320;28;20729;-58
2023/07/11 10:34:41;;;;;;;6.38;3.10;;;31.00;92.80;;;;;;5073287;28;20436;-59
2023/07/11 10:37:14;;;;;;;9.43;2.65;;;31.00;92.40;;;;;;5073299;28;20040;-59
2023/07/11 10:39:49;;;;;;;9.63;2.67;;;30.90;91.90;;;;;;5072775;28;20432;-56
2023/07/11 10:42:28;;;;;;;10.25;2.88;;;30.90;92.20;;;;;;5073020;28;20064;-56
2023/07/11 10:45:06;;;;;;;11.68;3.35;;;31.20;92.70;;;;;;5072476;28;20025;-60
2023/07/11 10:47:36;;;;;;;5.85;2.75;;;31.40;91.40;;;;;;5072671;28;20102;-59
2023/07/11 10:50:11;;;;;;;9.10;3.08;;;31.30;91.30;;;;;;5072482;28;20020;-61
2023/07/11 10:52:39;;;;;;;7.85;3.47;;;31.20;91.30;;;;;;5072810;28;20027;-59
2023/07/11 10:55:16;;;;;;;8.05;3.45;;;31.30;90.30;;;;;;5072456;28;20059;-58
2023/07/11 10:57:50;;;;;;;5.57;3.10;;;31.60;90.80;;;;;;5072684;28;20421;-55
2023/07/11 11:00:16;;;;;;;4.82;2.95;;;31.70;84.10;;;;;;5071706;28;20017;-53
2023/07/11 11:03:00;;;;;;;4.85;2.83;;;31.60;83.00;;;;;;5072587;28;20031;-58
2023/07/11 11:05:45;;;;;;;;;;;31.70;82.40;;;;;;5072674;28;20070;-58
2023/07/11 11:08:24;;;;;;;9.30;3.67;;;31.90;80.30;;;;;;5072287;28;19904;-59
2023/07/11 11:11:01;;;;;;;7.57;3.88;;;31.90;78.70;;;;;;5072134;28;20028;-60
2023/07/11 11:13:42;;;;;;;9.30;4.88;;;32.10;78.00;;;;;;5072414;28;20394;-58
2023/07/11 11:16:27;;;;;;;11.77;3.97;;;32.40;77.60;;;;;;5072225;28;20024;-60
2023/07/11 11:19:30;;;;;;;5.47;3.60;;;32.30;76.00;;;;;;5071991;28;20052;-57
2023/07/11 11:22:14;;;;;;;9.02;3.95;;;32.60;76.70;;;;;;5072120;28;20511;-58
2023/07/11 11:24:50;;;;;;;5.43;3.47;;;32.70;73.20;;;;;;5071878;28;20033;-53
2023/07/11 11:27:35;;;;;;;6.97;3.47;;;32.70;74.20;;;;;;5071992;28;20032;-59
2023/07/11 11:30:10;;;;;;;22.27;4.50;;;32.80;73.60;;;;;;5071787;28;20021;-59
2023/07/11 11:32:56;;;;;;;12.40;3.97;;;33.00;74.20;;;;;;5072008;28;20475;-56
2023/07/11 11:36:04;;;;;;;7.07;4.10;;;33.30;73.60;;;;;;5071963;28;20078;-58
2023/07/11 11:38:41;;;;;;;8.13;4.53;;;33.60;70.00;;;;;;5071463;28;20526;-61
2023/07/11 11:41:16;;;;;;;6.38;3.83;;;33.10;68.00;;;;;;5071674;28;20577;-58
2023/07/11 11:43:46;;;;;;;6.28;4.00;;;33.20;68.70;;;;;;5071815;28;20461;-58
2023/07/11 11:46:13;;;;;;;18.38;4.25;;;33.20;68.20;;;;;;5071475;28;20054;-59
2023/07/11 11:48:40;;;;;;;12.43;4.97;;;33.50;69.00;;;;;;5071607;28;20064;-58
2023/07/11 11:51:09;;;;;;;7.88;3.75;;;33.80;67.50;;;;;;5071635;28;20028;-58
2023/07/11 11:53:43;;;;;;;7.53;4.40;;;34.10;66.60;;;;;;5071704;28;20479;-56
2023/07/11 11:56:14;;;;;;;7.75;4.68;;;34.30;65.30;;;;;;5071653;28;20032;-58
2023/07/11 11:58:51;;;;;;;7.03;4.15;;;33.90;63.20;;;;;;5071337;28;20103;-58
2023/07/11 12:01:38;;;;;;;7.38;3.90;;;34.10;64.20;;;;;;5071850;28;20411;-59
2023/07/11 12:04:28;;;;;;;7.70;3.90;;;34.10;63.00;;;;;;5071347;28;20519;-61
2023/07/11 12:07:23;;;;;;;8.43;3.97;;;34.20;62.40;;;;;;5071311;28;20033;-60
2023/07/11 12:10:22;;;;;;;17.42;4.60;;;34.30;61.50;;;;;;5070663;28;20473;-58
2023/07/11 12:13:19;;;;;;;11.45;4.28;;;34.40;60.80;;;;;;5071390;28;20024;-58
2023/07/11 12:15:48;;;;;;;11.93;4.85;;;34.40;60.20;;;;;;5070693;28;20597;-60
2023/07/11 12:18:32;;;;;;;8.35;4.35;;;34.30;59.00;;;;;;5069899;28;20568;-61
2023/07/11 12:21:25;;;;;;;8.82;4.63;;;34.00;60.40;;;;;;5071343;28;20082;-59
2023/07/11 12:23:53;;;;;;;10.65;5.00;;;34.00;59.50;;;;;;5070892;28;20037;-54
2023/07/11 12:26:24;;;;;;;7.85;5.38;;;34.10;58.40;;;;;;5071243;28;20036;-57
2023/07/11 12:28:52;;;;;;;10.80;4.95;;;34.20;56.50;;;;;;5071079;28;20029;-60
2023/07/11 12:31:24;;;;;;;21.42;6.28;;;34.40;56.90;;;;;;5071344;28;20028;-60
2023/07/11 12:34:11;;;;;;;9.82;5.03;;;34.40;55.30;;;;;;5071161;28;20048;-60
2023/07/11 12:36:43;;;;;;;12.80;6.35;;;34.60;55.70;;;;;;5071119;28;20033;-59
2023/07/11 12:39:19;;;;;;;11.35;5.22;;;34.70;55.60;;;;;;5070989;28;20032;-60
2023/07/11 12:42:03;;;;;;;10.13;5.53;;;35.00;55.60;;;;;;5071024;28;20039;-61
2023/07/11 12:44:33;;;;;;;7.82;4.32;;;35.20;56.00;;;;;;5071026;28;20025;-60
2023/07/11 12:47:03;;;;;;;7.97;4.35;;;35.20;56.20;;;;;;5070774;28;20051;-61
2023/07/11 12:49:30;;;;;;;9.18;4.57;;;35.50;56.00;;;;;;5070836;28;20028;-61
2023/07/11 12:52:09;;;;;;;11.20;4.72;;;35.30;55.10;;;;;;5070871;28;20437;-60
2023/07/11 12:54:34;;;;;;;9.20;4.90;;;34.80;55.30;;;;;;5071226;28;20052;-60
2023/07/11 12:57:00;;;;;;;9.60;5.20;;;35.00;54.30;;;;;;5070934;28;20517;-61